createdAt,value
2018-11-04T08:21:32.971Z,7.00
2018-11-04T08:24:01.700Z,8.70
2018-11-04T08:26:30.375Z,8.30
2018-11-04T08:28:59.047Z,8.00
2018-11-04T08:31:27.598Z,7.90
2018-11-04T08:33:56.129Z,7.90
2018-11-04T08:36:24.695Z,7.90
2018-11-04T08:38:53.055Z,8.00
2018-11-04T08:41:21.459Z,8.00
2018-11-04T08:43:49.822Z,8.00
2018-11-04T08:46:18.298Z,8.00
2018-11-04T08:48:46.872Z,8.00
2018-11-04T08:51:15.361Z,8.00
2018-11-04T08:53:44.078Z,8.10
2018-11-04T08:56:13.008Z,8.10
2018-11-04T08:58:41.762Z,8.20
2018-11-04T09:01:10.423Z,8.20
2018-11-04T09:03:39.003Z,8.20
2018-11-04T09:06:07.759Z,8.20
2018-11-04T09:08:36.512Z,8.20
2018-11-04T09:11:05.046Z,8.30
2018-11-04T09:13:33.717Z,8.30
2018-11-04T09:16:02.115Z,8.30
2018-11-04T09:18:30.627Z,8.30
2018-11-04T09:20:59.568Z,8.30
2018-11-04T09:23:28.095Z,8.40
2018-11-04T09:25:56.671Z,8.40
2018-11-04T09:28:25.265Z,8.40
2018-11-04T09:30:54.003Z,8.50
2018-11-04T09:33:22.723Z,8.50
2018-11-04T09:35:51.551Z,8.60
2018-11-04T09:38:20.007Z,8.60
2018-11-04T09:40:48.479Z,8.60
2018-11-04T09:43:16.980Z,8.70
2018-11-04T09:45:45.563Z,8.70
2018-11-04T09:48:14.510Z,8.80
2018-11-04T09:50:43.119Z,8.80
2018-11-04T09:53:11.527Z,8.90
2018-11-04T09:55:40.647Z,9.00
2018-11-04T09:58:09.455Z,9.00
2018-11-04T10:00:38.249Z,9.10
2018-11-04T10:03:06.991Z,9.10
2018-11-04T10:05:35.689Z,9.10
2018-11-04T10:08:04.539Z,9.20
2018-11-04T10:10:33.115Z,9.20
2018-11-04T10:13:02.200Z,9.30
2018-11-04T10:15:30.603Z,9.30
2018-11-04T10:17:59.367Z,9.30
2018-11-04T10:20:28.772Z,9.30
2018-11-04T10:22:56.971Z,9.30
2018-11-04T10:25:25.473Z,9.40
2018-11-04T10:27:54.136Z,9.50
2018-11-04T10:30:23.064Z,9.50
2018-11-04T10:32:51.783Z,9.60
2018-11-04T10:35:20.517Z,9.60
2018-11-04T10:37:49.371Z,9.60
2018-11-04T10:40:17.919Z,9.70
2018-11-04T10:42:46.583Z,9.80
2018-11-04T10:45:15.269Z,9.90
2018-11-04T10:47:43.959Z,9.90
2018-11-04T10:50:13.120Z,10.00
2018-11-04T10:52:41.572Z,10.00
2018-11-04T10:55:10.836Z,10.10
2018-11-04T10:57:39.306Z,10.10
2018-11-04T11:00:14.678Z,10.20
2018-11-04T11:02:43.451Z,10.30
2018-11-04T11:05:12.388Z,10.30
2018-11-04T11:07:41.159Z,10.30
2018-11-04T11:10:10.379Z,10.40
2018-11-04T11:12:39.065Z,10.50
2018-11-04T11:15:08.652Z,10.50
2018-11-04T11:17:37.115Z,10.50
2018-11-04T11:20:07.155Z,10.50
2018-11-04T11:22:35.770Z,10.50
2018-11-04T11:25:04.754Z,10.40
2018-11-04T11:27:33.390Z,10.40
2018-11-04T11:30:02.144Z,10.30
2018-11-04T11:32:30.791Z,10.20
2018-11-04T11:34:59.506Z,10.40
2018-11-04T11:37:28.277Z,10.30
2018-11-04T11:39:56.711Z,10.30
2018-11-04T11:42:25.364Z,10.40
2018-11-04T11:44:53.819Z,10.40
2018-11-04T11:47:22.243Z,10.40
2018-11-04T11:49:50.930Z,10.50
2018-11-04T11:52:19.359Z,10.50
2018-11-04T11:54:48.379Z,10.50
2018-11-04T11:57:16.903Z,10.60
2018-11-04T11:59:45.387Z,10.60
2018-11-04T12:02:14.105Z,10.70
2018-11-04T12:04:42.654Z,10.70
2018-11-04T12:07:11.525Z,10.90
2018-11-04T12:09:40.396Z,11.00
2018-11-04T12:12:08.924Z,11.10
2018-11-04T12:14:37.371Z,11.00
2018-11-04T12:17:06.253Z,11.00
2018-11-04T12:19:35.143Z,11.00
2018-11-04T12:22:03.910Z,11.20
2018-11-04T12:24:32.452Z,11.30
2018-11-04T12:27:00.855Z,11.40
2018-11-04T12:29:29.220Z,11.50
2018-11-04T12:31:57.966Z,11.60
2018-11-04T12:34:26.465Z,11.50
2018-11-04T12:36:54.995Z,11.60
2018-11-04T12:39:23.660Z,11.80
2018-11-04T12:41:52.431Z,11.80
2018-11-04T12:44:21.292Z,11.80
2018-11-04T12:46:49.825Z,12.00
2018-11-04T12:49:18.784Z,12.00
2018-11-04T12:51:47.414Z,11.80
2018-11-04T12:54:16.189Z,11.70
2018-11-04T12:56:45.147Z,11.80
2018-11-04T12:59:13.948Z,12.10
2018-11-04T13:01:42.441Z,12.30
2018-11-04T13:04:11.210Z,12.50
2018-11-04T13:06:39.896Z,12.30
2018-11-04T13:09:09.208Z,12.40
2018-11-04T13:11:38.500Z,12.30
2018-11-04T13:14:07.151Z,12.20
2018-11-04T13:16:35.774Z,12.20
2018-11-04T13:19:04.544Z,11.90
2018-11-04T13:21:34.231Z,11.70
2018-11-04T13:24:02.879Z,11.80
2018-11-04T13:26:31.616Z,11.90
2018-11-04T13:29:00.123Z,11.90
2018-11-04T13:31:28.645Z,11.90
2018-11-04T13:33:57.306Z,11.90
2018-11-04T13:36:25.780Z,11.70
2018-11-04T13:38:54.257Z,11.80
2018-11-04T13:41:23.351Z,11.90
2018-11-04T13:43:51.955Z,11.80
2018-11-04T13:46:20.426Z,11.70
2018-11-04T13:48:49.598Z,11.50
2018-11-04T13:51:18.592Z,11.50
2018-11-04T13:53:47.380Z,11.60
2018-11-04T13:56:16.091Z,11.70
2018-11-04T13:58:44.677Z,11.80
2018-11-04T14:01:13.671Z,11.80
2018-11-04T14:03:42.854Z,11.70
2018-11-04T14:06:11.354Z,11.70
2018-11-04T14:08:39.728Z,11.80
2018-11-04T14:11:08.103Z,11.90
2018-11-04T14:13:36.511Z,12.00
2018-11-04T14:16:04.999Z,12.00
2018-11-04T14:18:33.594Z,11.90
2018-11-04T14:21:02.398Z,11.80
2018-11-04T14:23:31.356Z,11.80
2018-11-04T14:26:00.067Z,11.80
2018-11-04T14:28:28.951Z,11.80
2018-11-04T14:30:57.641Z,12.00
2018-11-04T14:33:26.100Z,12.40
2018-11-04T14:35:54.702Z,12.70
2018-11-04T14:38:23.159Z,12.60
2018-11-04T14:40:51.907Z,12.80
2018-11-04T14:43:20.804Z,13.10
2018-11-04T14:45:49.580Z,13.30
2018-11-04T14:48:18.115Z,13.00
2018-11-04T14:50:46.879Z,12.90
2018-11-04T14:53:15.291Z,12.60
2018-11-04T14:55:43.771Z,12.30
2018-11-04T14:58:12.613Z,12.10
2018-11-04T15:00:41.279Z,12.00
2018-11-04T15:03:09.625Z,11.90
2018-11-04T15:05:38.166Z,11.80
2018-11-04T15:08:07.055Z,11.60
2018-11-04T15:10:35.649Z,11.60
2018-11-04T15:13:04.146Z,11.50
2018-11-04T15:15:32.843Z,11.40
2018-11-04T15:18:02.485Z,11.30
2018-11-04T15:20:31.139Z,11.10
2018-11-04T15:23:00.851Z,11.00
2018-11-04T15:25:29.700Z,10.90
2018-11-04T15:27:58.448Z,10.80
2018-11-04T15:30:28.206Z,10.80
2018-11-04T15:32:57.012Z,10.80
2018-11-04T15:35:25.427Z,10.60
2018-11-04T15:37:54.174Z,10.60
2018-11-04T15:40:22.797Z,10.60
2018-11-04T15:42:51.390Z,10.50
2018-11-04T15:45:19.737Z,10.40
2018-11-04T15:47:53.162Z,10.50
2018-11-04T15:50:21.922Z,10.40
2018-11-04T15:52:50.524Z,10.30
2018-11-04T15:55:19.030Z,10.40
2018-11-04T15:57:47.602Z,10.30
2018-11-04T16:00:16.177Z,10.20
2018-11-04T16:02:45.132Z,10.20
2018-11-04T16:05:13.569Z,10.10
2018-11-04T16:07:42.010Z,10.10
2018-11-04T16:10:11.285Z,10.10
2018-11-04T16:12:39.911Z,9.90
2018-11-04T16:15:10.527Z,10.00
2018-11-04T16:17:39.316Z,10.00
2018-11-04T16:20:09.714Z,10.00
2018-11-04T16:22:38.813Z,10.00
2018-11-04T16:25:07.849Z,10.00
2018-11-04T16:27:36.427Z,9.90
2018-11-04T16:30:06.384Z,9.90
2018-11-04T16:32:35.556Z,9.80
2018-11-04T16:35:04.135Z,9.80
2018-11-04T16:37:32.738Z,9.80
2018-11-04T16:40:01.287Z,9.80
2018-11-04T16:42:29.660Z,9.80
2018-11-04T16:44:58.368Z,9.70
2018-11-04T16:47:26.841Z,9.70
2018-11-04T16:49:55.460Z,9.60
2018-11-04T16:52:24.175Z,9.70
2018-11-04T16:54:52.711Z,9.60
2018-11-04T16:57:21.451Z,9.60
2018-11-04T16:59:50.237Z,9.70
2018-11-04T17:02:18.743Z,9.70
2018-11-04T17:04:47.736Z,9.70
2018-11-04T17:07:16.259Z,9.70
2018-11-04T17:09:44.679Z,9.70
2018-11-04T17:12:13.571Z,9.70
2018-11-04T17:14:44.643Z,9.60
2018-11-04T17:17:13.194Z,9.60
2018-11-04T17:19:44.202Z,9.70
2018-11-04T17:22:12.967Z,9.70
2018-11-04T17:24:41.715Z,9.60
2018-11-04T17:27:10.317Z,9.60
2018-11-04T17:29:38.711Z,9.60
2018-11-04T17:32:09.207Z,9.60
2018-11-04T17:34:37.747Z,9.50
2018-11-04T17:37:07.138Z,9.40
2018-11-04T17:39:35.661Z,9.50
2018-11-04T17:42:04.559Z,9.50
2018-11-04T17:44:33.380Z,9.50
2018-11-04T17:47:01.970Z,9.40
2018-11-04T17:49:30.831Z,9.50
2018-11-04T17:51:59.443Z,9.50
2018-11-04T17:54:28.313Z,9.50
2018-11-04T17:56:56.835Z,9.40
2018-11-04T17:59:25.417Z,9.40
2018-11-04T18:01:53.918Z,9.40
2018-11-04T18:04:22.844Z,9.30
2018-11-04T18:06:51.835Z,9.30
2018-11-04T18:09:20.343Z,9.30
2018-11-04T18:11:49.211Z,9.30
2018-11-04T18:14:19.085Z,9.30
2018-11-04T18:16:47.847Z,9.30
2018-11-04T18:19:16.527Z,9.20
2018-11-04T18:21:45.539Z,9.20
2018-11-04T18:24:14.215Z,9.10
2018-11-04T18:26:42.715Z,9.10
2018-11-04T18:29:11.284Z,8.80
2018-11-04T18:31:40.263Z,8.80
2018-11-04T18:34:08.660Z,8.90
2018-11-04T18:36:37.618Z,8.90
2018-11-04T18:39:07.695Z,8.80
2018-11-04T18:41:36.675Z,8.80
2018-11-04T18:44:05.577Z,8.80
2018-11-04T18:46:33.948Z,8.70
2018-11-04T18:49:05.788Z,8.60
2018-11-04T18:51:34.375Z,8.60
2018-11-04T18:54:03.353Z,8.50
2018-11-04T18:56:34.999Z,8.50
2018-11-04T18:59:03.849Z,8.50
2018-11-04T19:01:32.677Z,8.50
2018-11-04T19:04:01.517Z,8.40
2018-11-04T19:06:30.088Z,8.30
2018-11-04T19:08:58.443Z,8.30
2018-11-04T19:11:27.930Z,8.30
2018-11-04T19:13:56.830Z,8.20
2018-11-04T19:16:25.467Z,8.20
2018-11-04T19:18:53.929Z,8.20
2018-11-04T19:21:22.620Z,8.20
2018-11-04T19:23:50.987Z,8.20
2018-11-04T19:26:19.567Z,8.20
2018-11-04T19:28:48.363Z,8.20
2018-11-04T19:31:17.098Z,8.20
2018-11-04T19:33:45.735Z,8.10
2018-11-04T19:36:14.375Z,8.10
2018-11-04T19:38:43.443Z,8.10
2018-11-04T19:41:12.107Z,8.10
2018-11-04T19:43:40.825Z,8.00
2018-11-04T19:46:09.747Z,8.00
2018-11-04T19:48:38.539Z,8.00
2018-11-04T19:51:07.310Z,8.00
2018-11-04T19:53:35.730Z,8.00
2018-11-04T19:56:04.743Z,7.90
2018-11-04T19:58:33.509Z,7.80
2018-11-04T20:01:02.215Z,7.80
2018-11-04T20:03:30.894Z,7.80
2018-11-04T20:05:59.663Z,7.80
2018-11-04T20:08:28.315Z,7.80
2018-11-04T20:10:56.959Z,7.70
2018-11-04T20:13:31.355Z,7.70
2018-11-04T20:16:00.136Z,7.70
2018-11-04T20:18:34.208Z,7.70
2018-11-04T20:21:02.934Z,7.70
2018-11-04T20:23:31.339Z,7.70
2018-11-04T20:26:01.951Z,7.70
2018-11-04T20:28:30.467Z,7.70
2018-11-04T20:30:59.079Z,7.70
2018-11-04T20:33:27.743Z,7.70
2018-11-04T20:35:56.600Z,7.50
2018-11-04T20:38:30.507Z,7.60
2018-11-04T20:41:05.025Z,7.60
2018-11-04T20:43:33.537Z,7.60
2018-11-04T20:46:02.342Z,7.70
2018-11-04T20:50:40.108Z,7.60
2018-11-04T20:53:09.004Z,7.60
2018-11-04T20:55:43.110Z,7.60
2018-11-04T20:58:12.100Z,7.70
2018-11-04T21:00:40.416Z,7.70
2018-11-04T21:03:08.807Z,7.60
2018-11-04T21:05:37.315Z,7.60
2018-11-04T21:08:06.481Z,7.60
2018-11-04T21:10:35.233Z,7.50
2018-11-04T21:13:03.775Z,7.50
2018-11-04T21:15:32.346Z,7.40
2018-11-04T21:18:00.804Z,7.30
2018-11-04T21:20:29.305Z,7.30
2018-11-04T21:22:57.899Z,7.20
2018-11-04T21:25:26.570Z,7.30
2018-11-04T21:27:55.518Z,7.30
2018-11-04T21:30:24.767Z,7.40
2018-11-04T21:32:53.443Z,7.40
2018-11-04T21:35:22.031Z,7.40
2018-11-04T21:37:50.520Z,7.30
2018-11-04T21:40:19.141Z,7.30
2018-11-04T21:42:48.041Z,7.30
2018-11-04T21:45:16.536Z,7.30
2018-11-04T21:47:45.550Z,7.30
2018-11-04T21:50:14.372Z,7.30
2018-11-04T21:52:43.108Z,7.20
2018-11-04T21:55:12.745Z,7.20
2018-11-04T21:57:42.103Z,7.30
2018-11-04T22:00:12.427Z,7.30
2018-11-04T22:02:41.264Z,7.30
2018-11-04T22:05:10.433Z,7.30
2018-11-04T22:07:39.801Z,7.30
2018-11-04T22:10:10.712Z,7.30
2018-11-04T22:12:39.440Z,7.30
2018-11-04T22:15:08.353Z,7.30
2018-11-04T22:17:37.206Z,7.30
2018-11-04T22:20:06.267Z,7.40
2018-11-04T22:22:34.751Z,7.30
2018-11-04T22:25:03.176Z,7.30
2018-11-04T22:27:31.787Z,7.30
2018-11-04T22:30:00.187Z,7.30
2018-11-04T22:32:28.672Z,7.30
2018-11-04T22:34:57.259Z,7.30
2018-11-04T22:37:26.020Z,7.40
2018-11-04T22:39:54.655Z,7.40
2018-11-04T22:42:23.196Z,7.30
2018-11-04T22:44:51.719Z,7.40
2018-11-04T22:47:20.098Z,7.40
2018-11-04T22:49:48.559Z,7.40
2018-11-04T22:52:17.031Z,7.40
2018-11-04T22:54:45.803Z,7.40
2018-11-04T22:57:14.585Z,7.40
2018-11-04T22:59:43.315Z,7.30
2018-11-04T23:02:11.911Z,7.40
2018-11-04T23:04:46.083Z,7.40
2018-11-04T23:07:14.599Z,7.30
2018-11-04T23:09:43.153Z,7.30
2018-11-04T23:12:11.551Z,7.30
2018-11-04T23:14:40.315Z,7.40
2018-11-04T23:17:09.304Z,7.40
2018-11-04T23:19:38.199Z,7.40
2018-11-04T23:22:06.603Z,7.50
2018-11-04T23:24:34.983Z,7.50
2018-11-04T23:27:03.759Z,7.50
2018-11-04T23:29:32.039Z,7.60
2018-11-04T23:32:00.531Z,7.60
2018-11-04T23:34:29.119Z,7.60
2018-11-04T23:36:57.803Z,7.70
2018-11-04T23:39:26.282Z,7.70
2018-11-04T23:41:54.754Z,7.70
2018-11-04T23:44:23.247Z,7.70
2018-11-04T23:46:51.581Z,7.70
2018-11-04T23:49:19.824Z,7.70
2018-11-04T23:51:48.511Z,7.60
2018-11-04T23:54:16.737Z,7.60
2018-11-04T23:56:45.521Z,7.60
2018-11-04T23:59:14.251Z,7.60
